sensor_id;sensor_type;location;lat;lon;timestamp;pressure;altitude;pressure_sealevel;temperature;humidity
11856;BME280;5987;53.140;8.904;2023-02-18T00:00:46;101864.72;;;4.60;100.00
11856;BME280;5987;53.140;8.904;2023-02-18T00:04:57;101863.00;;;4.66;100.00
11856;BME280;5987;53.140;8.904;2023-02-18T00:08:54;101865.63;;;4.75;100.00
11856;BME280;5987;53.140;8.904;2023-02-18T00:12:35;101861.28;;;4.74;100.00
11856;BME280;5987;53.140;8.904;2023-02-18T00:15:41;101873.44;;;4.76;100.00
11856;BME280;5987;53.140;8.904;2023-02-18T00:18:44;101869.13;;;4.77;100.00
11856;BME280;5987;53.140;8.904;2023-02-18T00:21:48;101874.34;;;4.81;100.00
11856;BME280;5987;53.140;8.904;2023-02-18T00:24:52;101882.19;;;4.92;100.00
11856;BME280;5987;53.140;8.904;2023-02-18T00:27:56;101879.59;;;4.94;100.00
11856;BME280;5987;53.140;8.904;2023-02-18T00:31:06;101881.31;;;4.92;100.00
11856;BME280;5987;53.140;8.904;2023-02-18T00:34:11;101876.09;;;4.90;100.00
11856;BME280;5987;53.140;8.904;2023-02-18T00:37:15;101885.66;;;4.96;100.00
11856;BME280;5987;53.140;8.904;2023-02-18T00:40:19;101890.84;;;4.94;100.00
11856;BME280;5987;53.140;8.904;2023-02-18T00:43:23;101879.59;;;5.05;100.00
11856;BME280;5987;53.140;8.904;2023-02-18T00:46:29;101880.50;;;5.08;100.00
11856;BME280;5987;53.140;8.904;2023-02-18T00:49:33;101880.50;;;5.07;100.00
11856;BME280;5987;53.140;8.904;2023-02-18T00:52:37;101874.44;;;5.09;100.00
11856;BME280;5987;53.140;8.904;2023-02-18T00:55:42;101872.69;;;5.14;100.00
11856;BME280;5987;53.140;8.904;2023-02-18T00:58:47;101865.78;;;5.18;100.00
11856;BME280;5987;53.140;8.904;2023-02-18T01:01:52;101864.88;;;5.16;100.00
11856;BME280;5987;53.140;8.904;2023-02-18T01:04:56;101864.91;;;5.19;100.00
11856;BME280;5987;53.140;8.904;2023-02-18T01:08:00;101867.47;;;5.16;100.00
11856;BME280;5987;53.140;8.904;2023-02-18T01:11:05;101865.78;;;5.21;100.00
11856;BME280;5987;53.140;8.904;2023-02-18T01:14:09;101850.16;;;5.26;100.00
11856;BME280;5987;53.140;8.904;2023-02-18T01:17:14;101845.81;;;5.26;100.00
11856;BME280;5987;53.140;8.904;2023-02-18T01:20:19;101842.38;;;5.27;100.00
11856;BME280;5987;53.140;8.904;2023-02-18T01:23:23;101844.97;;;5.27;100.00
11856;BME280;5987;53.140;8.904;2023-02-18T01:26:27;101837.16;;;5.27;100.00
11856;BME280;5987;53.140;8.904;2023-02-18T01:29:31;101832.81;;;5.32;100.00
11856;BME280;5987;53.140;8.904;2023-02-18T01:32:37;101831.94;;;5.33;100.00
11856;BME280;5987;53.140;8.904;2023-02-18T01:35:41;101833.69;;;5.35;100.00
11856;BME280;5987;53.140;8.904;2023-02-18T01:38:50;101829.34;;;5.35;100.00
11856;BME280;5987;53.140;8.904;2023-02-18T01:42:31;101828.47;;;5.41;100.00
11856;BME280;5987;53.140;8.904;2023-02-18T01:46:27;101818.06;;;5.44;100.00
11856;BME280;5987;53.140;8.904;2023-02-18T01:50:35;101823.25;;;5.44;100.00
11856;BME280;5987;53.140;8.904;2023-02-18T01:54:37;101811.13;;;5.44;100.00
11856;BME280;5987;53.140;8.904;2023-02-18T01:57:59;101812.84;;;5.44;100.00
11856;BME280;5987;53.140;8.904;2023-02-18T02:02:01;101823.25;;;5.44;100.00
11856;BME280;5987;53.140;8.904;2023-02-18T02:06:08;101823.25;;;5.47;100.00
11856;BME280;5987;53.140;8.904;2023-02-18T02:10:10;101833.69;;;5.47;100.00
11856;BME280;5987;53.140;8.904;2023-02-18T02:14:34;101838.91;;;5.52;100.00
11856;BME280;5987;53.140;8.904;2023-02-18T02:18:59;101828.50;;;5.53;100.00
11856;BME280;5987;53.140;8.904;2023-02-18T02:23:29;101821.53;;;5.52;100.00
11856;BME280;5987;53.140;8.904;2023-02-18T02:27:56;101818.91;;;5.57;100.00
11856;BME280;5987;53.140;8.904;2023-02-18T02:32:47;101807.63;;;5.56;100.00
11856;BME280;5987;53.140;8.904;2023-02-18T02:36:56;101809.38;;;5.60;100.00
11856;BME280;5987;53.140;8.904;2023-02-18T02:41:18;101812.84;;;5.61;100.00
11856;BME280;5987;53.140;8.904;2023-02-18T02:45:26;101808.50;;;5.63;100.00
11856;BME280;5987;53.140;8.904;2023-02-18T02:49:14;101804.16;;;5.60;100.00
11856;BME280;5987;53.140;8.904;2023-02-18T02:52:58;101789.41;;;5.67;100.00
11856;BME280;5987;53.140;8.904;2023-02-18T02:57:43;101779.00;;;5.65;100.00
11856;BME280;5987;53.140;8.904;2023-02-18T03:01:38;101771.19;;;5.64;100.00
11856;BME280;5987;53.140;8.904;2023-02-18T03:05:47;101755.53;;;5.64;100.00
11856;BME280;5987;53.140;8.904;2023-02-18T03:10:20;101742.50;;;5.65;100.00
11856;BME280;5987;53.140;8.904;2023-02-18T03:14:43;101734.66;;;5.73;100.00
11856;BME280;5987;53.140;8.904;2023-02-18T03:18:54;101741.63;;;5.76;100.00
11856;BME280;5987;53.140;8.904;2023-02-18T03:22:48;101745.09;;;5.75;100.00
11856;BME280;5987;53.140;8.904;2023-02-18T03:26:52;101738.13;;;5.80;100.00
11856;BME280;5987;53.140;8.904;2023-02-18T03:30:54;101738.13;;;5.83;100.00
11856;BME280;5987;53.140;8.904;2023-02-18T03:34:46;101732.03;;;5.84;100.00
11856;BME280;5987;53.140;8.904;2023-02-18T03:38:20;101737.25;;;5.84;100.00
11856;BME280;5987;53.140;8.904;2023-02-18T03:42:21;101739.88;;;5.84;100.00
11856;BME280;5987;53.140;8.904;2023-02-18T03:46:20;101735.50;;;5.83;100.00
11856;BME280;5987;53.140;8.904;2023-02-18T03:49:35;101736.41;;;5.76;100.00
11856;BME280;5987;53.140;8.904;2023-02-18T03:53:04;101738.16;;;5.67;100.00
11856;BME280;5987;53.140;8.904;2023-02-18T03:56:45;101735.56;;;5.61;100.00
11856;BME280;5987;53.140;8.904;2023-02-18T04:00:24;101722.53;;;5.55;100.00
11856;BME280;5987;53.140;8.904;2023-02-18T04:04:16;101724.28;;;5.53;100.00
11856;BME280;5987;53.140;8.904;2023-02-18T04:08:23;101726.00;;;5.51;100.00
11856;BME280;5987;53.140;8.904;2023-02-18T04:12:15;101709.56;;;5.44;100.00
11856;BME280;5987;53.140;8.904;2023-02-18T04:16:23;101709.53;;;5.43;100.00
11856;BME280;5987;53.140;8.904;2023-02-18T04:20:13;101701.72;;;5.40;100.00
11856;BME280;5987;53.140;8.904;2023-02-18T04:24:14;101697.38;;;5.37;100.00
11856;BME280;5987;53.140;8.904;2023-02-18T04:28:12;101686.13;;;5.30;100.00
11856;BME280;5987;53.140;8.904;2023-02-18T04:32:20;101682.63;;;5.28;100.00
11856;BME280;5987;53.140;8.904;2023-02-18T04:36:56;101679.19;;;5.28;100.00
11856;BME280;5987;53.140;8.904;2023-02-18T04:40:58;101669.63;;;5.28;100.00
11856;BME280;5987;53.140;8.904;2023-02-18T04:45:04;101660.94;;;5.31;100.00
11856;BME280;5987;53.140;8.904;2023-02-18T04:49:17;101654.88;;;5.30;100.00
11856;BME280;5987;53.140;8.904;2023-02-18T04:53:12;101664.41;;;5.30;100.00
11856;BME280;5987;53.140;8.904;2023-02-18T04:56:29;101659.19;;;5.31;100.00
11856;BME280;5987;53.140;8.904;2023-02-18T04:59:33;101667.91;;;5.30;100.00
11856;BME280;5987;53.140;8.904;2023-02-18T05:02:37;101660.97;;;5.28;100.00
11856;BME280;5987;53.140;8.904;2023-02-18T05:05:42;101658.34;;;5.29;100.00
11856;BME280;5987;53.140;8.904;2023-02-18T05:08:47;101646.19;;;5.31;100.00
11856;BME280;5987;53.140;8.904;2023-02-18T05:11:50;101639.25;;;5.30;100.00
11856;BME280;5987;53.140;8.904;2023-02-18T05:14:54;101639.28;;;5.27;100.00
11856;BME280;5987;53.140;8.904;2023-02-18T05:18:06;101623.63;;;5.26;100.00
11856;BME280;5987;53.140;8.904;2023-02-18T05:21:13;101615.81;;;5.26;100.00
11856;BME280;5987;53.140;8.904;2023-02-18T05:24:17;101614.09;;;5.23;100.00
11856;BME280;5987;53.140;8.904;2023-02-18T05:27:20;101613.22;;;5.24;100.00
11856;BME280;5987;53.140;8.904;2023-02-18T05:30:24;101612.34;;;5.24;100.00
11856;BME280;5987;53.140;8.904;2023-02-18T05:33:28;101612.34;;;5.28;100.00
11856;BME280;5987;53.140;8.904;2023-02-18T05:36:33;101601.91;;;5.31;100.00
11856;BME280;5987;53.140;8.904;2023-02-18T05:39:37;101589.78;;;5.33;100.00
11856;BME280;5987;53.140;8.904;2023-02-18T05:42:42;101585.41;;;5.34;100.00
11856;BME280;5987;53.140;8.904;2023-02-18T05:45:46;101569.81;;;5.32;100.00
11856;BME280;5987;53.140;8.904;2023-02-18T05:48:49;101564.63;;;5.29;100.00
11856;BME280;5987;53.140;8.904;2023-02-18T05:51:55;101556.81;;;5.26;100.00
11856;BME280;5987;53.140;8.904;2023-02-18T05:54:59;101544.66;;;5.24;100.00
11856;BME280;5987;53.140;8.904;2023-02-18T05:58:03;101536.88;;;5.22;100.00
11856;BME280;5987;53.140;8.904;2023-02-18T06:01:07;101544.69;;;5.18;100.00
11856;BME280;5987;53.140;8.904;2023-02-18T06:04:11;101538.59;;;5.20;100.00
11856;BME280;5987;53.140;8.904;2023-02-18T06:07:16;101530.78;;;5.20;100.00
11856;BME280;5987;53.140;8.904;2023-02-18T06:10:22;101519.53;;;5.15;100.00
11856;BME280;5987;53.140;8.904;2023-02-18T06:13:26;101504.78;;;5.17;100.00
11856;BME280;5987;53.140;8.904;2023-02-18T06:16:30;101505.66;;;5.18;100.00
11856;BME280;5987;53.140;8.904;2023-02-18T06:19:34;101507.38;;;5.17;100.00
11856;BME280;5987;53.140;8.904;2023-02-18T06:22:39;101501.31;;;5.15;100.00
11856;BME280;5987;53.140;8.904;2023-02-18T06:25:43;101484.81;;;5.16;100.00
11856;BME280;5987;53.140;8.904;2023-02-18T06:28:47;101474.41;;;5.18;100.00
11856;BME280;5987;53.140;8.904;2023-02-18T06:31:51;101474.38;;;5.16;100.00
11856;BME280;5987;53.140;8.904;2023-02-18T06:34:55;101469.19;;;5.14;100.00
11856;BME280;5987;53.140;8.904;2023-02-18T06:38:00;101457.94;;;5.14;100.00
11856;BME280;5987;53.140;8.904;2023-02-18T06:41:04;101469.22;;;5.18;100.00
11856;BME280;5987;53.140;8.904;2023-02-18T06:44:08;101458.81;;;5.11;100.00
11856;BME280;5987;53.140;8.904;2023-02-18T06:47:12;101455.34;;;5.11;100.00
11856;BME280;5987;53.140;8.904;2023-02-18T06:50:16;101441.38;;;5.24;100.00
11856;BME280;5987;53.140;8.904;2023-02-18T06:53:22;101428.44;;;5.15;100.00
11856;BME280;5987;53.140;8.904;2023-02-18T06:56:26;101415.44;;;5.09;100.00
11856;BME280;5987;53.140;8.904;2023-02-18T06:59:32;101408.44;;;5.20;100.00
11856;BME280;5987;53.140;8.904;2023-02-18T07:02:36;101408.50;;;5.09;100.00
11856;BME280;5987;53.140;8.904;2023-02-18T07:05:45;101395.50;;;5.09;100.00
11856;BME280;5987;53.140;8.904;2023-02-18T07:08:55;101379.88;;;5.08;100.00
11856;BME280;5987;53.140;8.904;2023-02-18T07:12:13;101373.81;;;5.06;100.00
11856;BME280;5987;53.140;8.904;2023-02-18T07:15:21;101362.50;;;5.10;100.00
11856;BME280;5987;53.140;8.904;2023-02-18T07:18:25;101347.78;;;5.06;100.00
11856;BME280;5987;53.140;8.904;2023-02-18T07:21:29;101335.63;;;5.08;100.00
11856;BME280;5987;53.140;8.904;2023-02-18T07:24:35;101325.22;;;5.05;100.00
11856;BME280;5987;53.140;8.904;2023-02-18T07:27:40;101321.72;;;5.15;100.00
11856;BME280;5987;53.140;8.904;2023-02-18T07:30:44;101320.84;;;5.11;100.00
11856;BME280;5987;53.140;8.904;2023-02-18T07:33:48;101313.06;;;5.10;100.00
11856;BME280;5987;53.140;8.904;2023-02-18T07:36:51;101306.94;;;5.14;100.00
11856;BME280;5987;53.140;8.904;2023-02-18T07:39:57;101302.59;;;5.19;100.00
11856;BME280;5987;53.140;8.904;2023-02-18T07:43:03;101290.44;;;5.18;100.00
11856;BME280;5987;53.140;8.904;2023-02-18T07:46:07;101281.75;;;5.22;100.00
11856;BME280;5987;53.140;8.904;2023-02-18T07:49:16;101268.66;;;5.30;100.00
11856;BME280;5987;53.140;8.904;2023-02-18T07:52:26;101257.31;;;5.37;100.00
11856;BME280;5987;53.140;8.904;2023-02-18T07:55:42;101255.53;;;5.41;100.00
11856;BME280;5987;53.140;8.904;2023-02-18T07:58:52;101251.22;;;5.40;100.00
11856;BME280;5987;53.140;8.904;2023-02-18T08:01:55;101252.03;;;5.45;100.00
11856;BME280;5987;53.140;8.904;2023-02-18T08:04:59;101238.13;;;5.49;100.00
11856;BME280;5987;53.140;8.904;2023-02-18T08:08:04;101226.78;;;5.55;100.00
11856;BME280;5987;53.140;8.904;2023-02-18T08:11:09;101218.03;;;5.60;100.00
11856;BME280;5987;53.140;8.904;2023-02-18T08:14:20;101214.41;;;5.74;100.00
11856;BME280;5987;53.140;8.904;2023-02-18T08:17:24;101219.44;;;5.92;100.00
11856;BME280;5987;53.140;8.904;2023-02-18T08:20:28;101214.13;;;6.01;100.00
11856;BME280;5987;53.140;8.904;2023-02-18T08:23:32;101200.13;;;6.13;100.00
11856;BME280;5987;53.140;8.904;2023-02-18T08:26:38;101193.06;;;6.22;100.00
11856;BME280;5987;53.140;8.904;2023-02-18T08:30:00;101184.28;;;6.29;100.00
11856;BME280;5987;53.140;8.904;2023-02-18T08:33:04;101182.34;;;6.42;100.00
11856;BME280;5987;53.140;8.904;2023-02-18T08:36:09;101178.78;;;6.49;100.00
11856;BME280;5987;53.140;8.904;2023-02-18T08:39:13;101180.34;;;6.59;100.00
11856;BME280;5987;53.140;8.904;2023-02-18T08:42:18;101163.44;;;6.85;100.00
11856;BME280;5987;53.140;8.904;2023-02-18T08:45:22;101158.84;;;6.99;100.00
11856;BME280;5987;53.140;8.904;2023-02-18T08:48:26;101167.16;;;7.23;100.00
11856;BME280;5987;53.140;8.904;2023-02-18T08:51:30;101148.53;;;7.42;100.00
11856;BME280;5987;53.140;8.904;2023-02-18T08:54:47;101149.00;;;7.64;100.00
11856;BME280;5987;53.140;8.904;2023-02-18T08:58:05;101141.03;;;7.70;100.00
11856;BME280;5987;53.140;8.904;2023-02-18T09:01:15;101133.78;;;7.83;100.00
11856;BME280;5987;53.140;8.904;2023-02-18T09:04:43;101135.44;;;7.87;100.00
11856;BME280;5987;53.140;8.904;2023-02-18T09:07:46;101124.84;;;7.93;100.00
11856;BME280;5987;53.140;8.904;2023-02-18T09:11:12;101117.69;;;8.03;100.00
11856;BME280;5987;53.140;8.904;2023-02-18T09:14:53;101122.72;;;8.12;100.00
11856;BME280;5987;53.140;8.904;2023-02-18T09:18:39;101123.41;;;8.20;100.00
11856;BME280;5987;53.140;8.904;2023-02-18T09:22:02;101120.69;;;8.25;100.00
11856;BME280;5987;53.140;8.904;2023-02-18T09:25:23;101115.28;;;8.33;100.00
11856;BME280;5987;53.140;8.904;2023-02-18T09:28:43;101102.91;;;8.39;100.00
11856;BME280;5987;53.140;8.904;2023-02-18T09:32:28;101111.56;;;8.45;100.00
11856;BME280;5987;53.140;8.904;2023-02-18T09:36:04;101103.53;;;8.51;100.00
11856;BME280;5987;53.140;8.904;2023-02-18T09:39:12;101099.94;;;8.56;100.00
11856;BME280;5987;53.140;8.904;2023-02-18T09:42:20;101099.94;;;8.56;100.00
11856;BME280;5987;53.140;8.904;2023-02-18T09:45:27;101084.25;;;8.56;100.00
11856;BME280;5987;53.140;8.904;2023-02-18T09:48:35;101085.00;;;8.60;100.00
11856;BME280;5987;53.140;8.904;2023-02-18T09:51:40;101087.56;;;8.63;100.00
11856;BME280;5987;53.140;8.904;2023-02-18T09:54:44;101087.47;;;8.68;100.00
11856;BME280;5987;53.140;8.904;2023-02-18T09:57:50;101085.81;;;8.64;100.00
11856;BME280;5987;53.140;8.904;2023-02-18T10:01:04;101081.38;;;8.66;100.00
11856;BME280;5987;53.140;8.904;2023-02-18T10:04:21;101073.53;;;8.66;100.00
11856;BME280;5987;53.140;8.904;2023-02-18T10:07:30;101087.47;;;8.68;100.00
11856;BME280;5987;53.140;8.904;2023-02-18T10:10:40;101086.50;;;8.70;100.00
11856;BME280;5987;53.140;8.904;2023-02-18T10:13:45;101095.09;;;8.75;100.00
11856;BME280;5987;53.140;8.904;2023-02-18T10:16:52;101090.00;;;8.71;100.00
11856;BME280;5987;53.140;8.904;2023-02-18T10:20:00;101084.84;;;8.66;100.00
11856;BME280;5987;53.140;8.904;2023-02-18T10:23:11;101090.09;;;8.66;100.00
11856;BME280;5987;53.140;8.904;2023-02-18T10:26:17;101092.69;;;8.66;100.00
11856;BME280;5987;53.140;8.904;2023-02-18T10:29:24;101101.56;;;8.62;100.00
11856;BME280;5987;53.140;8.904;2023-02-18T10:32:35;101088.66;;;8.54;100.00
11856;BME280;5987;53.140;8.904;2023-02-18T10:35:51;101095.69;;;8.51;100.00
11856;BME280;5987;53.140;8.904;2023-02-18T10:39:23;101090.41;;;8.54;100.00
11856;BME280;5987;53.140;8.904;2023-02-18T10:42:48;101090.47;;;8.51;100.00
11856;BME280;5987;53.140;8.904;2023-02-18T10:46:08;101087.84;;;8.51;100.00
11856;BME280;5987;53.140;8.904;2023-02-18T10:49:40;101087.72;;;8.57;100.00
11856;BME280;5987;53.140;8.904;2023-02-18T10:52:55;101085.84;;;8.62;100.00
11856;BME280;5987;53.140;8.904;2023-02-18T10:56:03;101078.81;;;8.64;100.00
11856;BME280;5987;53.140;8.904;2023-02-18T10:59:14;101073.50;;;8.67;100.00
11856;BME280;5987;53.140;8.904;2023-02-18T11:02:26;101078.69;;;8.69;100.00
11856;BME280;5987;53.140;8.904;2023-02-18T11:05:35;101067.38;;;8.68;100.00
11856;BME280;5987;53.140;8.904;2023-02-18T11:08:44;101066.53;;;8.66;100.00
11856;BME280;5987;53.140;8.904;2023-02-18T11:11:49;101052.63;;;8.64;100.00
11856;BME280;5987;53.140;8.904;2023-02-18T11:15:19;101069.16;;;8.66;100.00
11856;BME280;5987;53.140;8.904;2023-02-18T11:18:34;101074.28;;;8.71;100.00
11856;BME280;5987;53.140;8.904;2023-02-18T11:21:39;101057.75;;;8.69;100.00
11856;BME280;5987;53.140;8.904;2023-02-18T11:24:44;101066.53;;;8.68;100.00
11856;BME280;5987;53.140;8.904;2023-02-18T11:27:55;101073.44;;;8.69;100.00
11856;BME280;5987;53.140;8.904;2023-02-18T11:31:02;101075.38;;;8.62;100.00
11856;BME280;5987;53.140;8.904;2023-02-18T11:34:15;101065.00;;;8.57;100.00
11856;BME280;5987;53.140;8.904;2023-02-18T11:37:21;101072.94;;;8.54;100.00
11856;BME280;5987;53.140;8.904;2023-02-18T11:40:30;101075.56;;;8.54;100.00
11856;BME280;5987;53.140;8.904;2023-02-18T11:43:36;101079.88;;;8.57;100.00
11856;BME280;5987;53.140;8.904;2023-02-18T11:46:56;101082.41;;;8.60;100.00
11856;BME280;5987;53.140;8.904;2023-02-18T11:50:20;101092.94;;;8.57;100.00
11856;BME280;5987;53.140;8.904;2023-02-18T11:53:28;101093.00;;;8.55;100.00
11856;BME280;5987;53.140;8.904;2023-02-18T11:56:35;101096.53;;;8.53;100.00
11856;BME280;5987;53.140;8.904;2023-02-18T11:59:42;101088.69;;;8.53;100.00
11856;BME280;5987;53.140;8.904;2023-02-18T12:02:47;101095.66;;;8.54;100.00
11856;BME280;5987;53.140;8.904;2023-02-18T12:05:51;101089.53;;;8.53;100.00
11856;BME280;5987;53.140;8.904;2023-02-18T12:09:00;101093.75;;;8.59;100.00
11856;BME280;5987;53.140;8.904;2023-02-18T12:12:15;101099.66;;;8.67;100.00
11856;BME280;5987;53.140;8.904;2023-02-18T12:15:31;101090.97;;;8.67;100.00
11856;BME280;5987;53.140;8.904;2023-02-18T12:18:56;101097.72;;;8.75;100.00
11856;BME280;5987;53.140;8.904;2023-02-18T12:22:17;101102.16;;;8.72;100.00
11856;BME280;5987;53.140;8.904;2023-02-18T12:25:36;101091.72;;;8.70;100.00
11856;BME280;5987;53.140;8.904;2023-02-18T12:29:01;101103.09;;;8.71;100.00
11856;BME280;5987;53.140;8.904;2023-02-18T12:32:18;101098.78;;;8.68;100.00
11856;BME280;5987;53.140;8.904;2023-02-18T12:35:48;101114.47;;;8.68;100.00
11856;BME280;5987;53.140;8.904;2023-02-18T12:39:09;101108.41;;;8.66;100.00
11856;BME280;5987;53.140;8.904;2023-02-18T12:42:30;101119.81;;;8.65;100.00
11856;BME280;5987;53.140;8.904;2023-02-18T12:50:14;101128.66;;;8.60;100.00
11856;BME280;5987;53.140;8.904;2023-02-18T12:53:52;101133.94;;;8.58;100.00
11856;BME280;5987;53.140;8.904;2023-02-18T12:57:18;101131.34;;;8.56;100.00
11856;BME280;5987;53.140;8.904;2023-02-18T13:01:20;101136.47;;;8.61;100.00
11856;BME280;5987;53.140;8.904;2023-02-18T13:05:36;101125.97;;;8.63;100.00
11856;BME280;5987;53.140;8.904;2023-02-18T13:09:46;101129.44;;;8.63;100.00
11856;BME280;5987;53.140;8.904;2023-02-18T13:13:59;101138.09;;;8.67;100.00
11856;BME280;5987;53.140;8.904;2023-02-18T13:17:44;101151.13;;;8.68;100.00
11856;BME280;5987;53.140;8.904;2023-02-18T13:21:05;101134.38;;;8.75;100.00
11856;BME280;5987;53.140;8.904;2023-02-18T13:24:38;101139.44;;;8.82;100.00
11856;BME280;5987;53.140;8.904;2023-02-18T13:28:27;101143.78;;;8.83;100.00
11856;BME280;5987;53.140;8.904;2023-02-18T13:31:46;101154.91;;;8.92;100.00
11856;BME280;5987;53.140;8.904;2023-02-18T13:35:41;101140.09;;;8.91;100.00
11856;BME280;5987;53.140;8.904;2023-02-18T13:39:34;101157.53;;;8.92;100.00
11856;BME280;5987;53.140;8.904;2023-02-18T13:42:38;101160.09;;;8.94;100.00
11856;BME280;5987;53.140;8.904;2023-02-18T13:46:19;101152.38;;;8.89;100.00
11856;BME280;5987;53.140;8.904;2023-02-18T13:50:47;101155.78;;;8.91;100.00
11856;BME280;5987;53.140;8.904;2023-02-18T13:54:54;101143.41;;;8.98;100.00
11856;BME280;5987;53.140;8.904;2023-02-18T13:58:58;101169.69;;;8.95;100.00
11856;BME280;5987;53.140;8.904;2023-02-18T14:03:32;101172.38;;;8.92;100.00
11856;BME280;5987;53.140;8.904;2023-02-18T14:08:09;101186.56;;;8.83;100.00
11856;BME280;5987;53.140;8.904;2023-02-18T14:12:39;101196.41;;;8.73;100.00
11856;BME280;5987;53.140;8.904;2023-02-18T14:21:43;101201.75;;;8.67;100.00
11856;BME280;5987;53.140;8.904;2023-02-18T14:25:37;101214.31;;;8.90;100.00
11856;BME280;5987;53.140;8.904;2023-02-18T14:29:10;101223.84;;;8.95;100.00
11856;BME280;5987;53.140;8.904;2023-02-18T14:33:13;101201.84;;;9.02;100.00
11856;BME280;5987;53.140;8.904;2023-02-18T14:41:57;101221.78;;;9.07;100.00
11856;BME280;5987;53.140;8.904;2023-02-18T14:46:38;101224.44;;;9.06;100.00
11856;BME280;5987;53.140;8.904;2023-02-18T14:50:55;101231.34;;;9.08;100.00
11856;BME280;5987;53.140;8.904;2023-02-18T14:55:06;101219.97;;;9.09;100.00
11856;BME280;5987;53.140;8.904;2023-02-18T14:59:12;101219.97;;;9.09;100.00
11856;BME280;5987;53.140;8.904;2023-02-18T15:03:18;101240.19;;;9.03;100.00
11856;BME280;5987;53.140;8.904;2023-02-18T15:07:30;101235.84;;;9.03;100.00
11856;BME280;5987;53.140;8.904;2023-02-18T15:11:23;101267.41;;;8.97;100.00
11856;BME280;5987;53.140;8.904;2023-02-18T15:15:02;101266.44;;;9.01;100.00
11856;BME280;5987;53.140;8.904;2023-02-18T15:18:23;101249.06;;;8.97;100.00
11856;BME280;5987;53.140;8.904;2023-02-18T15:21:36;101286.91;;;8.84;100.00
11856;BME280;5987;53.140;8.904;2023-02-18T15:24:43;101284.19;;;8.88;100.00
11856;BME280;5987;53.140;8.904;2023-02-18T15:27:51;101287.66;;;8.90;100.00
11856;BME280;5987;53.140;8.904;2023-02-18T15:30:57;101290.31;;;8.89;100.00
11856;BME280;5987;53.140;8.904;2023-02-18T15:34:33;101287.00;;;8.81;100.00
11856;BME280;5987;53.140;8.904;2023-02-18T15:37:37;101295.03;;;8.71;100.00
11856;BME280;5987;53.140;8.904;2023-02-18T15:40:42;101297.84;;;8.64;100.00
11856;BME280;5987;53.140;8.904;2023-02-18T15:43:57;101306.69;;;8.58;100.00
11856;BME280;5987;53.140;8.904;2023-02-18T15:47:07;101302.41;;;8.54;100.00
11856;BME280;5987;53.140;8.904;2023-02-18T15:50:23;101303.44;;;8.47;100.00
11856;BME280;5987;53.140;8.904;2023-02-18T15:53:28;101303.44;;;8.47;100.00
11856;BME280;5987;53.140;8.904;2023-02-18T15:56:37;101312.22;;;8.39;100.00
11856;BME280;5987;53.140;8.904;2023-02-18T15:59:53;101308.81;;;8.37;100.00
11856;BME280;5987;53.140;8.904;2023-02-18T16:03:11;101321.03;;;8.35;100.00
11856;BME280;5987;53.140;8.904;2023-02-18T16:06:22;101321.00;;;8.38;100.00
11856;BME280;5987;53.140;8.904;2023-02-18T16:09:31;101323.41;;;8.49;100.00
11856;BME280;5987;53.140;8.904;2023-02-18T16:12:38;101328.72;;;8.46;100.00
11856;BME280;5987;53.140;8.904;2023-02-18T16:15:47;101326.97;;;8.47;100.00
11856;BME280;5987;53.140;8.904;2023-02-18T16:18:52;101340.84;;;8.50;100.00
11856;BME280;5987;53.140;8.904;2023-02-18T16:22:03;101347.00;;;8.48;100.00
11856;BME280;5987;53.140;8.904;2023-02-18T16:25:17;101368.25;;;8.29;100.00
11856;BME280;5987;53.140;8.904;2023-02-18T16:28:25;101360.81;;;8.07;100.00
11856;BME280;5987;53.140;8.904;2023-02-18T16:31:30;101376.63;;;8.00;100.00
11856;BME280;5987;53.140;8.904;2023-02-18T16:34:34;101384.69;;;7.86;100.00
11856;BME280;5987;53.140;8.904;2023-02-18T16:37:41;101392.59;;;7.83;100.00
11856;BME280;5987;53.140;8.904;2023-02-18T16:40:48;101388.06;;;7.94;100.00
11856;BME280;5987;53.140;8.904;2023-02-18T16:43:52;101387.28;;;7.87;100.00
11856;BME280;5987;53.140;8.904;2023-02-18T16:46:56;101377.66;;;7.91;100.00
11856;BME280;5987;53.140;8.904;2023-02-18T16:50:00;101381.00;;;7.99;100.00
11856;BME280;5987;53.140;8.904;2023-02-18T16:53:06;101387.19;;;7.94;100.00
11856;BME280;5987;53.140;8.904;2023-02-18T16:56:16;101391.56;;;7.93;100.00
11856;BME280;5987;53.140;8.904;2023-02-18T16:59:20;101386.31;;;7.93;100.00
11856;BME280;5987;53.140;8.904;2023-02-18T17:02:30;101395.94;;;7.93;100.00
11856;BME280;5987;53.140;8.904;2023-02-18T17:05:34;101402.09;;;7.88;100.00
11856;BME280;5987;53.140;8.904;2023-02-18T17:08:43;101402.97;;;7.87;100.00
11856;BME280;5987;53.140;8.904;2023-02-18T17:11:49;101416.97;;;7.86;100.00
11856;BME280;5987;53.140;8.904;2023-02-18T17:14:54;101422.25;;;7.83;100.00
11856;BME280;5987;53.140;8.904;2023-02-18T17:17:59;101431.00;;;7.78;100.00
11856;BME280;5987;53.140;8.904;2023-02-18T17:21:03;101432.75;;;7.79;100.00
11856;BME280;5987;53.140;8.904;2023-02-18T17:24:11;101433.69;;;7.75;100.00
11856;BME280;5987;53.140;8.904;2023-02-18T17:27:15;101444.19;;;7.71;100.00
11856;BME280;5987;53.140;8.904;2023-02-18T17:30:19;101448.63;;;7.65;100.00
11856;BME280;5987;53.140;8.904;2023-02-18T17:33:24;101448.53;;;7.72;100.00
11856;BME280;5987;53.140;8.904;2023-02-18T17:36:28;101458.25;;;7.64;100.00
11856;BME280;5987;53.140;8.904;2023-02-18T17:39:33;101461.72;;;7.63;100.00
11856;BME280;5987;53.140;8.904;2023-02-18T17:42:37;101464.28;;;7.66;100.00
11856;BME280;5987;53.140;8.904;2023-02-18T17:45:48;101467.00;;;7.60;100.00
11856;BME280;5987;53.140;8.904;2023-02-18T17:48:53;101470.53;;;7.56;100.00
11856;BME280;5987;53.140;8.904;2023-02-18T17:51:56;101483.72;;;7.50;100.00
11856;BME280;5987;53.140;8.904;2023-02-18T17:55:20;101492.63;;;7.33;100.00
11856;BME280;5987;53.140;8.904;2023-02-18T17:58:25;101499.94;;;7.03;100.00
11856;BME280;5987;53.140;8.904;2023-02-18T18:01:29;101498.28;;;6.98;100.00
11856;BME280;5987;53.140;8.904;2023-02-18T18:04:33;101505.38;;;6.83;100.00
11856;BME280;5987;53.140;8.904;2023-02-18T18:07:37;101501.03;;;6.84;100.00